Time;durP1;ratioP1;P1;durP2;ratioP2;P2;SDS_P1;SDS_P2;PMS_P1;PMS_P2;Temp;Humidity;BMP_temperature;BMP_pressure;BME280_temperature;BME280_humidity;BME280_pressure;Samples;Min_cycle;Max_cycle;Signal;HPM_P1;HPM_P2
2022/02/18 00:01:04;;;;;;;8.82;0.98;;;5.30;82.80;;;;;;4993572;28;20053;-75
2022/02/18 00:03:40;;;;;;;9.55;1.30;;;5.30;82.80;;;;;;4990509;28;20070;-75
2022/02/18 00:06:08;;;;;;;7.65;0.95;;;5.30;82.90;;;;;;4992779;28;20046;-75
2022/02/18 00:08:36;;;;;;;7.45;1.67;;;5.30;82.90;;;;;;4992668;28;20057;-75
2022/02/18 00:11:05;;;;;;;10.70;1.40;;;5.30;82.90;;;;;;4992628;28;20061;-75
2022/02/18 00:13:34;;;;;;;8.10;1.10;;;5.30;83.00;;;;;;4991170;28;20062;-75
2022/02/18 00:16:02;;;;;;;5.18;1.08;;;5.30;83.10;;;;;;4992223;28;20046;-75
2022/02/18 00:18:30;;;;;;;17.98;1.73;;;5.30;83.30;;;;;;4991028;28;20045;-75
2022/02/18 00:20:58;;;;;;;8.43;1.35;;;5.20;83.50;;;;;;4974946;28;20046;-75
2022/02/18 00:23:26;;;;;;;11.13;1.67;;;5.20;83.70;;;;;;4990844;28;20042;-75
2022/02/18 00:25:54;;;;;;;10.45;1.45;;;5.20;83.80;;;;;;4991245;28;20053;-75
2022/02/18 00:28:22;;;;;;;13.82;1.73;;;5.10;84.00;;;;;;4992546;28;21935;-75
2022/02/18 00:30:50;;;;;;;16.95;2.08;;;5.20;84.20;;;;;;4989975;28;20053;-74
2022/02/18 00:33:19;;;;;;;10.10;1.50;;;5.10;84.30;;;;;;4991956;28;20491;-75
2022/02/18 00:35:49;;;;;;;12.80;1.70;;;5.10;84.40;;;;;;4991319;28;20404;-75
2022/02/18 00:38:17;;;;;;;8.55;1.60;;;5.00;84.70;;;;;;4992223;28;20030;-75
2022/02/18 00:40:45;;;;;;;6.05;1.20;;;5.00;85.00;;;;;;4989699;28;20049;-76
2022/02/18 00:43:14;;;;;;;5.03;1.02;;;5.00;85.30;;;;;;4990392;28;20031;-76
2022/02/18 00:45:42;;;;;;;4.10;0.85;;;4.90;85.40;;;;;;4987311;28;20046;-76
2022/02/18 00:48:11;;;;;;;10.15;0.80;;;4.90;85.40;;;;;;4989512;28;20073;-74
2022/02/18 00:50:42;;;;;;;7.68;0.80;;;4.90;85.50;;;;;;4988374;28;20061;-74
2022/02/18 00:53:11;;;;;;;8.27;1.23;;;4.80;85.70;;;;;;4990098;28;20049;-74
2022/02/18 00:55:39;;;;;;;4.57;0.98;;;4.80;85.70;;;;;;4990829;28;20704;-75
2022/02/18 00:58:06;;;;;;;4.47;0.93;;;4.80;85.70;;;;;;4991646;28;20049;-75
2022/02/18 01:00:34;;;;;;;10.55;1.15;;;4.80;85.90;;;;;;4991224;28;20118;-75
2022/02/18 01:03:02;;;;;;;10.40;1.17;;;4.80;86.00;;;;;;4990826;28;20047;-75
2022/02/18 01:05:30;;;;;;;14.10;1.98;;;4.80;86.10;;;;;;4988352;28;20061;-75
2022/02/18 01:07:59;;;;;;;8.43;0.98;;;4.70;86.30;;;;;;4991305;28;20053;-75
2022/02/18 01:10:27;;;;;;;6.18;1.20;;;4.80;86.50;;;;;;4990180;28;20046;-75
2022/02/18 01:12:55;;;;;;;4.10;0.80;;;4.70;86.60;;;;;;4991006;28;20049;-75
2022/02/18 01:15:22;;;;;;;4.60;0.73;;;4.70;86.80;;;;;;4990381;28;20385;-75
2022/02/18 01:17:51;;;;;;;6.18;1.08;;;4.70;86.80;;;;;;4990060;28;20038;-74
2022/02/18 01:20:20;;;;;;;4.80;0.80;;;4.70;86.90;;;;;;4990385;28;20057;-76
2022/02/18 01:22:48;;;;;;;7.80;1.25;;;4.70;87.00;;;;;;4991051;28;20038;-75
2022/02/18 01:25:15;;;;;;;5.35;1.10;;;4.60;87.00;;;;;;4990258;28;20042;-75
2022/02/18 01:27:44;;;;;;;6.22;1.00;;;4.60;87.20;;;;;;4972567;28;20484;-75
2022/02/18 01:30:12;;;;;;;7.15;1.13;;;4.60;87.20;;;;;;4989605;28;20053;-75
2022/02/18 01:32:40;;;;;;;6.45;1.30;;;4.60;87.40;;;;;;4991232;28;20061;-74
2022/02/18 01:35:08;;;;;;;9.02;1.38;;;4.60;87.50;;;;;;4973903;28;20463;-74
2022/02/18 01:37:35;;;;;;;11.02;1.80;;;4.60;87.60;;;;;;4991526;28;20065;-76
2022/02/18 01:40:03;;;;;;;7.80;2.00;;;4.60;87.80;;;;;;4990707;28;20130;-75
2022/02/18 01:42:32;;;;;;;9.48;1.63;;;4.50;87.90;;;;;;4987766;28;20373;-74
2022/02/18 01:45:00;;;;;;;8.80;1.85;;;4.50;88.10;;;;;;4989011;28;20050;-75
2022/02/18 01:47:28;;;;;;;11.40;1.60;;;4.60;88.20;;;;;;4991520;28;20061;-74
2022/02/18 01:49:58;;;;;;;10.88;1.83;;;4.60;88.30;;;;;;4989941;28;20050;-74
2022/02/18 01:52:28;;;;;;;7.03;1.42;;;4.50;88.30;;;;;;4991268;28;20403;-74
2022/02/18 01:54:56;;;;;;;12.05;1.67;;;4.50;88.40;;;;;;4990889;28;20062;-74
2022/02/18 01:57:25;;;;;;;13.50;1.75;;;4.60;88.50;;;;;;4989794;28;20045;-74
2022/02/18 01:59:52;;;;;;;11.27;1.77;;;4.50;88.60;;;;;;4989918;28;20408;-75
2022/02/18 02:02:20;;;;;;;8.73;1.45;;;4.60;88.80;;;;;;4992001;28;20491;-73
2022/02/18 02:04:48;;;;;;;16.85;2.13;;;4.60;88.80;;;;;;4974060;28;20050;-74
2022/02/18 02:07:23;;;;;;;10.70;1.40;;;4.60;88.90;;;;;;4971374;28;20091;-74
2022/02/18 02:09:52;;;;;;;9.50;1.42;;;4.70;88.90;;;;;;4990117;28;20040;-74
2022/02/18 02:12:20;;;;;;;16.55;2.10;;;4.70;88.90;;;;;;4990486;28;20046;-74
2022/02/18 02:14:52;;;;;;;11.55;2.03;;;4.70;88.90;;;;;;4985673;28;20046;-74
2022/02/18 02:17:26;;;;;;;14.52;2.10;;;4.70;88.90;;;;;;4973329;28;20050;-74
2022/02/18 02:19:54;;;;;;;16.52;2.28;;;4.80;89.00;;;;;;4988053;28;20050;-74
2022/02/18 02:22:27;;;;;;;9.55;1.92;;;4.80;89.00;;;;;;4990774;28;20050;-73
2022/02/18 02:24:56;;;;;;;16.23;2.17;;;4.80;89.10;;;;;;4991729;28;20053;-73
2022/02/18 02:27:30;;;;;;;11.77;2.10;;;4.80;89.30;;;;;;4991048;28;20054;-73
2022/02/18 02:30:02;;;;;;;18.48;2.35;;;4.80;89.40;;;;;;4975597;28;20065;-73
2022/02/18 02:32:29;;;;;;;19.60;2.63;;;4.90;89.50;;;;;;4977242;28;20087;-74
2022/02/18 02:34:57;;;;;;;20.77;3.00;;;4.80;89.50;;;;;;4993650;28;20046;-73
2022/02/18 02:37:25;;;;;;;16.63;2.38;;;4.90;89.60;;;;;;4993302;28;20053;-74
2022/02/18 02:39:53;;;;;;;19.55;2.42;;;4.90;89.70;;;;;;4993266;28;20038;-74
2022/02/18 02:42:27;;;;;;;29.80;2.55;;;5.00;89.70;;;;;;4993416;28;20042;-74
2022/02/18 02:45:03;;;;;;;22.63;2.65;;;5.00;89.80;;;;;;4990667;28;20047;-74
2022/02/18 02:47:31;;;;;;;17.05;2.38;;;5.00;89.90;;;;;;4992825;28;20053;-74
2022/02/18 02:50:13;;;;;;;18.73;2.75;;;5.00;90.00;;;;;;4993693;28;20484;-74
2022/02/18 02:52:41;;;;;;;16.92;2.20;;;5.00;90.10;;;;;;5001879;28;20188;-74
2022/02/18 02:55:13;;;;;;;22.48;2.42;;;5.10;90.10;;;;;;4990290;28;20058;-75
2022/02/18 02:57:43;;;;;;;14.80;2.33;;;5.10;90.10;;;;;;4976073;28;20439;-74
2022/02/18 03:00:13;;;;;;;19.65;2.80;;;5.10;90.20;;;;;;4976634;28;20057;-74
2022/02/18 03:02:42;;;;;;;13.32;2.70;;;5.10;90.20;;;;;;4993171;28;20046;-75
2022/02/18 03:05:12;;;;;;;13.35;2.20;;;5.20;90.30;;;;;;4992631;28;20050;-75
2022/02/18 03:07:41;;;;;;;18.98;2.30;;;5.20;90.30;;;;;;4992683;28;20046;-75
2022/02/18 03:10:18;;;;;;;16.08;2.35;;;5.20;90.30;;;;;;4992477;28;20042;-75
2022/02/18 03:12:47;;;;;;;14.38;2.30;;;5.20;90.30;;;;;;4992231;28;20054;-75
2022/02/18 03:15:14;;;;;;;12.07;1.90;;;5.30;90.40;;;;;;4993500;28;20047;-75
2022/02/18 03:17:44;;;;;;;13.68;2.13;;;5.30;90.40;;;;;;4992342;28;20057;-75
2022/02/18 03:20:29;;;;;;;8.93;1.80;;;5.30;90.40;;;;;;4978359;28;20050;-75
2022/02/18 03:22:57;;;;;;;14.25;1.83;;;5.30;90.50;;;;;;5008782;28;20058;-75
2022/02/18 03:25:25;;;;;;;9.90;1.67;;;5.30;90.50;;;;;;4991284;28;20046;-75
2022/02/18 03:27:53;;;;;;;9.88;1.83;;;5.30;90.50;;;;;;4992161;28;20122;-75
2022/02/18 03:30:26;;;;;;;9.30;1.55;;;5.30;90.50;;;;;;4992203;28;20522;-74
2022/02/18 03:32:53;;;;;;;14.07;1.90;;;5.30;90.60;;;;;;4990699;28;20046;-74
2022/02/18 03:35:25;;;;;;;11.63;2.40;;;5.30;90.60;;;;;;4992379;28;20205;-74
2022/02/18 03:37:54;;;;;;;7.35;2.22;;;5.30;90.60;;;;;;4992069;28;20054;-76
2022/02/18 03:40:30;;;;;;;8.98;1.38;;;5.40;90.60;;;;;;4990402;28;20043;-75
2022/02/18 03:42:58;;;;;;;9.38;1.50;;;5.40;90.70;;;;;;4991659;28;20050;-76
2022/02/18 03:45:31;;;;;;;8.18;1.77;;;5.40;90.80;;;;;;4991940;28;20055;-76
2022/02/18 03:48:00;;;;;;;8.45;2.17;;;5.40;90.80;;;;;;4990072;28;20452;-76
2022/02/18 03:50:29;;;;;;;10.52;1.98;;;5.50;90.90;;;;;;4990742;28;20049;-76
2022/02/18 03:52:57;;;;;;;11.75;2.50;;;5.50;90.90;;;;;;4991666;28;20062;-75
2022/02/18 03:55:25;;;;;;;8.68;2.10;;;5.50;90.90;;;;;;4992586;28;20042;-76
2022/02/18 03:57:56;;;;;;;7.43;2.10;;;5.60;91.00;;;;;;4991650;28;20409;-75
2022/02/18 04:00:31;;;;;;;16.67;2.30;;;5.60;90.90;;;;;;4991993;28;20057;-75
2022/02/18 04:03:02;;;;;;;7.97;2.15;;;5.60;90.90;;;;;;4991299;28;20392;-75
2022/02/18 04:05:52;;;;;;;8.23;2.35;;;5.70;90.90;;;;;;4992724;28;20050;-75
2022/02/18 04:08:26;;;;;;;6.65;2.33;;;5.70;90.90;;;;;;4973820;28;20053;-75
2022/02/18 04:10:54;;;;;;;9.60;2.80;;;5.70;91.00;;;;;;4973362;28;20043;-75
2022/02/18 04:13:25;;;;;;;8.13;2.50;;;5.70;91.00;;;;;;4989816;28;20049;-75
2022/02/18 04:15:54;;;;;;;9.90;3.45;;;5.80;91.00;;;;;;4989490;28;20050;-75
2022/02/18 04:18:23;;;;;;;13.80;3.60;;;5.80;91.10;;;;;;4989573;28;20042;-75
2022/02/18 04:20:54;;;;;;;9.98;3.65;;;5.80;91.10;;;;;;4989155;28;22019;-75
2022/02/18 04:23:40;;;;;;;9.82;3.85;;;5.80;91.10;;;;;;4976096;28;20053;-75
2022/02/18 04:26:09;;;;;;;9.60;4.18;;;5.90;91.10;;;;;;4990302;28;20368;-75
2022/02/18 04:28:36;;;;;;;10.32;3.75;;;5.90;91.10;;;;;;4992526;28;20042;-76
2022/02/18 04:31:04;;;;;;;13.15;4.90;;;5.90;91.10;;;;;;4990559;28;20407;-74
2022/02/18 04:33:31;;;;;;;13.77;4.28;;;5.90;91.20;;;;;;4988228;28;20423;-76
2022/02/18 04:36:00;;;;;;;11.70;4.72;;;6.00;91.20;;;;;;4992220;28;20042;-76
2022/02/18 04:38:28;;;;;;;11.88;4.60;;;6.10;91.40;;;;;;4990329;28;20062;-76
2022/02/18 04:40:56;;;;;;;13.48;5.07;;;6.10;91.40;;;;;;4989471;28;20042;-75
2022/02/18 04:43:25;;;;;;;5.45;4.22;;;6.20;91.40;;;;;;4993642;28;20053;-75
2022/02/18 04:45:52;;;;;;;11.88;4.68;;;6.30;91.40;;;;;;4989102;28;20503;-75
2022/02/18 04:48:20;;;;;;;10.80;5.45;;;6.30;91.50;;;;;;4990367;28;20046;-75
2022/02/18 04:50:48;;;;;;;12.68;5.25;;;6.40;91.40;;;;;;4991975;28;20046;-75
2022/02/18 04:53:36;;;;;;;8.95;5.05;;;6.40;91.40;;;;;;4991092;28;20042;-75
2022/02/18 04:56:08;;;;;;;11.85;6.10;;;6.40;91.40;;;;;;4991926;28;20049;-76
2022/02/18 04:58:37;;;;;;;13.25;6.15;;;6.50;91.50;;;;;;4991552;28;20054;-76
2022/02/18 05:01:09;;;;;;;10.95;6.00;;;6.50;91.50;;;;;;4992218;28;20049;-76
2022/02/18 05:03:37;;;;;;;14.35;5.90;;;6.60;91.50;;;;;;4990688;28;20050;-75
2022/02/18 05:06:05;;;;;;;11.00;5.68;;;6.60;91.50;;;;;;4990604;28;20046;-76
2022/02/18 05:08:33;;;;;;;7.85;5.03;;;6.70;91.60;;;;;;4989822;28;20050;-76
2022/02/18 05:11:00;;;;;;;8.70;4.38;;;6.70;91.60;;;;;;4991993;28;20050;-75
2022/02/18 05:13:28;;;;;;;7.05;3.97;;;6.80;91.70;;;;;;4993466;28;20050;-74
2022/02/18 05:15:56;;;;;;;13.80;4.55;;;6.80;91.80;;;;;;4991412;28;20488;-74
2022/02/18 05:18:24;;;;;;;7.88;3.35;;;7.00;91.80;;;;;;4991336;28;20049;-72
2022/02/18 05:20:52;;;;;;;3.90;2.20;;;7.10;91.90;;;;;;4991062;28;20468;-71
2022/02/18 05:23:19;;;;;;;2.65;2.05;;;7.30;92.20;;;;;;4991294;28;20058;-71
2022/02/18 05:25:47;;;;;;;10.35;2.40;;;7.40;92.20;;;;;;4991908;28;20042;-71
2022/02/18 05:28:15;;;;;;;6.97;2.08;;;7.50;92.10;;;;;;4990731;28;20042;-71
2022/02/18 05:30:43;;;;;;;6.05;1.90;;;7.60;92.30;;;;;;4991319;28;20511;-71
2022/02/18 05:33:14;;;;;;;2.63;1.40;;;7.70;92.40;;;;;;4990886;28;20058;-71
2022/02/18 05:35:42;;;;;;;2.72;1.27;;;7.80;92.40;;;;;;4990394;28;20058;-71
2022/02/18 05:38:09;;;;;;;4.72;1.73;;;7.80;92.50;;;;;;4989101;28;20492;-71
2022/02/18 05:40:37;;;;;;;3.08;1.65;;;7.90;92.50;;;;;;4991713;28;20047;-72
2022/02/18 05:43:05;;;;;;;4.20;2.20;;;7.90;92.50;;;;;;4991177;28;20093;-71
2022/02/18 05:45:33;;;;;;;15.13;2.63;;;8.00;92.50;;;;;;4990257;28;20495;-71
2022/02/18 05:48:00;;;;;;;9.50;1.63;;;8.00;92.60;;;;;;4990935;28;20058;-71
2022/02/18 05:50:28;;;;;;;2.10;0.65;;;8.20;92.70;;;;;;4991691;28;20043;-71
2022/02/18 05:52:55;;;;;;;1.98;0.73;;;8.20;92.70;;;;;;4989098;28;20046;-71
2022/02/18 05:55:23;;;;;;;2.15;0.40;;;8.30;92.50;;;;;;4989379;28;20415;-72
2022/02/18 05:57:50;;;;;;;3.03;0.65;;;8.30;92.20;;;;;;4990823;28;20488;-72
2022/02/18 06:00:18;;;;;;;2.60;0.55;;;8.30;91.70;;;;;;4991931;28;20049;-72
2022/02/18 06:02:46;;;;;;;4.22;0.73;;;8.40;91.30;;;;;;4991596;28;20070;-71
2022/02/18 06:05:13;;;;;;;3.88;0.68;;;8.50;90.40;;;;;;4993212;28;20042;-70
2022/02/18 06:07:44;;;;;;;5.10;0.82;;;8.50;90.00;;;;;;4992268;28;20126;-70
2022/02/18 06:10:12;;;;;;;6.47;0.80;;;8.50;89.40;;;;;;4993694;28;20042;-70
2022/02/18 06:12:40;;;;;;;7.65;0.82;;;8.50;89.40;;;;;;4994778;28;20058;-71
2022/02/18 06:15:08;;;;;;;7.30;1.08;;;8.50;89.30;;;;;;4994993;28;20042;-72
2022/02/18 06:17:39;;;;;;;6.05;0.80;;;8.40;89.20;;;;;;4994759;28;20042;-73
2022/02/18 06:20:08;;;;;;;5.35;0.75;;;8.40;89.20;;;;;;4992033;28;20054;-72
2022/02/18 06:22:37;;;;;;;4.90;0.93;;;8.40;89.00;;;;;;4992801;28;20066;-72
2022/02/18 06:25:06;;;;;;;5.15;0.80;;;8.40;88.70;;;;;;4994627;28;20396;-73
2022/02/18 06:27:33;;;;;;;4.93;1.85;;;8.40;88.60;;;;;;4994343;28;20042;-72
2022/02/18 06:30:02;;;;;;;4.75;0.85;;;8.30;88.40;;;;;;4994584;28;20053;-72
2022/02/18 06:32:30;;;;;;;2.65;0.73;;;8.30;88.10;;;;;;4993796;28;20065;-72
2022/02/18 06:34:58;;;;;;;4.57;1.05;;;8.20;87.80;;;;;;4994339;28;20046;-72
2022/02/18 06:37:25;;;;;;;5.78;1.08;;;8.10;87.20;;;;;;4992599;28;20443;-71
2022/02/18 06:39:53;;;;;;;11.52;1.55;;;8.00;86.40;;;;;;4992938;28;20045;-71
2022/02/18 06:42:21;;;;;;;7.38;1.10;;;7.90;86.70;;;;;;4994363;28;20051;-71
2022/02/18 06:44:48;;;;;;;9.32;1.70;;;7.80;86.80;;;;;;4994238;28;20042;-71
2022/02/18 06:47:16;;;;;;;13.40;1.88;;;7.80;86.90;;;;;;4994164;28;20499;-71
2022/02/18 06:49:44;;;;;;;13.60;1.98;;;7.70;86.80;;;;;;4990962;28;20638;-72
2022/02/18 06:52:12;;;;;;;8.25;1.60;;;7.60;86.80;;;;;;4992987;28;20050;-71
2022/02/18 06:54:40;;;;;;;14.43;2.08;;;7.50;87.20;;;;;;4993959;28;20433;-72
2022/02/18 06:57:08;;;;;;;9.48;1.90;;;7.50;87.10;;;;;;4993614;28;20411;-69
2022/02/18 06:59:36;;;;;;;21.45;4.57;;;7.40;87.80;;;;;;4994115;28;20045;-70
2022/02/18 07:02:04;;;;;;;13.52;1.30;;;7.30;88.10;;;;;;4988949;28;20373;-70
2022/02/18 07:04:31;;;;;;;13.48;2.20;;;7.10;87.50;;;;;;4991047;28;20058;-70
2022/02/18 07:06:59;;;;;;;5.07;1.20;;;6.90;87.10;;;;;;4992379;28;20050;-71
2022/02/18 07:09:27;;;;;;;14.30;2.20;;;6.70;87.40;;;;;;4992326;28;20050;-71
2022/02/18 07:11:54;;;;;;;11.85;1.65;;;6.60;87.70;;;;;;4993155;28;20045;-71
2022/02/18 07:14:22;;;;;;;14.30;1.98;;;6.30;88.10;;;;;;4991832;28;20042;-71
2022/02/18 07:16:50;;;;;;;16.35;2.47;;;6.20;88.30;;;;;;4992455;28;20045;-71
2022/02/18 07:19:17;;;;;;;14.23;2.20;;;6.20;88.60;;;;;;4993353;28;20061;-72
2022/02/18 07:21:45;;;;;;;14.52;2.10;;;6.20;88.60;;;;;;4993266;28;20054;-73
2022/02/18 07:24:14;;;;;;;9.30;1.80;;;6.20;88.50;;;;;;4993689;28;20525;-73
2022/02/18 07:26:42;;;;;;;25.67;3.13;;;6.10;88.60;;;;;;4992809;28;20050;-74
2022/02/18 07:29:09;;;;;;;6.50;1.45;;;6.20;88.10;;;;;;4993084;28;20373;-72
2022/02/18 07:31:37;;;;;;;13.20;1.98;;;6.10;87.70;;;;;;4992766;28;20046;-76
2022/02/18 07:34:04;;;;;;;17.38;2.13;;;6.20;87.20;;;;;;4992970;28;20053;-74
2022/02/18 07:36:32;;;;;;;16.58;2.30;;;6.20;86.50;;;;;;4992867;28;20030;-74
2022/02/18 07:39:00;;;;;;;13.77;1.73;;;6.20;86.20;;;;;;4990358;28;20042;-74
2022/02/18 07:41:28;;;;;;;17.70;1.70;;;6.20;86.20;;;;;;4990369;28;20050;-75
2022/02/18 07:43:55;;;;;;;9.63;1.50;;;6.10;85.90;;;;;;4991355;28;20051;-76
2022/02/18 07:46:23;;;;;;;9.25;1.33;;;6.10;85.60;;;;;;4990620;28;20046;-75
2022/02/18 07:48:50;;;;;;;10.90;1.70;;;6.10;84.90;;;;;;4973274;28;20050;-75
2022/02/18 07:51:20;;;;;;;15.57;1.88;;;6.10;83.90;;;;;;4989705;28;20050;-76
2022/02/18 07:53:47;;;;;;;15.38;1.77;;;6.20;83.80;;;;;;4990340;28;20034;-75
2022/02/18 07:56:15;;;;;;;14.85;2.08;;;6.20;84.00;;;;;;4992861;28;20050;-75
2022/02/18 07:58:43;;;;;;;14.13;2.00;;;6.20;83.60;;;;;;4993062;28;20047;-76
2022/02/18 08:01:17;;;;;;;23.50;2.80;;;6.20;83.10;;;;;;4992300;28;20407;-75
2022/02/18 08:03:47;;;;;;;16.92;2.33;;;6.20;83.60;;;;;;4987121;28;20050;-76
2022/02/18 08:06:15;;;;;;;23.10;2.70;;;6.20;83.10;;;;;;4992927;28;20080;-76
2022/02/18 08:08:42;;;;;;;15.25;2.40;;;6.30;82.80;;;;;;4991917;28;20157;-75
2022/02/18 08:11:15;;;;;;;19.27;2.83;;;6.30;82.70;;;;;;4992847;28;20046;-76
2022/02/18 08:13:43;;;;;;;13.10;2.23;;;6.30;81.70;;;;;;5002547;28;20037;-75
2022/02/18 08:16:10;;;;;;;15.02;2.17;;;6.30;80.90;;;;;;5001828;28;20050;-76
2022/02/18 08:18:39;;;;;;;10.82;2.53;;;6.40;79.50;;;;;;4994191;28;20046;-76
2022/02/18 08:21:07;;;;;;;11.48;2.63;;;6.40;78.90;;;;;;4993417;28;20046;-76
2022/02/18 08:23:40;;;;;;;12.15;2.28;;;6.30;78.30;;;;;;4987284;28;20400;-77
2022/02/18 08:26:08;;;;;;;18.08;2.83;;;6.40;77.50;;;;;;4985599;28;20066;-76
2022/02/18 08:28:36;;;;;;;17.95;2.63;;;6.40;76.90;;;;;;4992293;28;20050;-77
2022/02/18 08:31:08;;;;;;;13.60;1.75;;;6.40;77.80;;;;;;4993132;28;20214;-76
2022/02/18 08:33:36;;;;;;;17.58;2.30;;;6.40;78.30;;;;;;4995393;28;20073;-76
2022/02/18 08:36:06;;;;;;;29.17;2.47;;;6.30;79.20;;;;;;4992421;28;20611;-74
2022/02/18 08:38:34;;;;;;;11.82;1.55;;;6.30;79.90;;;;;;4990520;28;20069;-72
2022/02/18 08:41:02;;;;;;;19.25;2.53;;;6.10;81.20;;;;;;4990151;28;20669;-69
2022/02/18 08:43:30;;;;;;;20.98;2.50;;;5.90;82.20;;;;;;4987745;28;20053;-70
2022/02/18 08:45:57;;;;;;;17.40;2.97;;;5.80;83.90;;;;;;4991024;28;20491;-70
2022/02/18 08:48:25;;;;;;;15.93;2.75;;;5.60;84.60;;;;;;4992767;28;20050;-71
2022/02/18 08:50:53;;;;;;;24.77;2.92;;;5.50;85.10;;;;;;4993129;28;20065;-71
2022/02/18 08:53:21;;;;;;;26.13;3.22;;;5.40;85.30;;;;;;4993138;28;20056;-71
2022/02/18 08:55:49;;;;;;;31.27;3.40;;;5.30;85.50;;;;;;4996738;28;20041;-72
2022/02/18 08:58:16;;;;;;;11.90;1.80;;;5.30;85.90;;;;;;5009965;28;20113;-71
2022/02/18 09:00:44;;;;;;;19.40;2.78;;;5.30;85.20;;;;;;5012527;28;20056;-71
2022/02/18 09:03:12;;;;;;;8.27;1.38;;;5.40;84.50;;;;;;5012954;28;20057;-70
2022/02/18 09:05:39;;;;;;;9.93;1.48;;;5.30;85.20;;;;;;5012435;28;20049;-70
2022/02/18 09:08:07;;;;;;;16.10;2.20;;;5.20;85.40;;;;;;4993239;28;20062;-71
2022/02/18 09:10:34;;;;;;;15.90;3.03;;;5.10;85.90;;;;;;5003724;28;20073;-70
2022/02/18 09:13:02;;;;;;;15.43;2.28;;;5.00;86.30;;;;;;4992761;28;20046;-71
2022/02/18 09:15:30;;;;;;;11.63;1.88;;;5.00;86.70;;;;;;4992351;28;20061;-71
2022/02/18 09:18:18;;;;;;;25.85;2.95;;;5.00;87.00;;;;;;4990600;28;20049;-71
2022/02/18 09:20:47;;;;;;;15.40;2.42;;;5.00;87.00;;;;;;4990797;28;20038;-72
2022/02/18 09:23:15;;;;;;;22.10;2.97;;;4.90;87.20;;;;;;4990859;28;20408;-71
2022/02/18 09:25:46;;;;;;;26.40;2.85;;;4.90;87.40;;;;;;4997781;28;20365;-72
2022/02/18 09:28:14;;;;;;;21.55;3.05;;;4.90;87.50;;;;;;4998509;28;20041;-72
2022/02/18 09:30:44;;;;;;;27.00;3.08;;;4.80;87.80;;;;;;4991158;28;20069;-73
2022/02/18 09:33:17;;;;;;;26.95;3.72;;;4.90;87.80;;;;;;4991852;28;20057;-73
2022/02/18 09:35:46;;;;;;;28.83;3.55;;;4.80;87.80;;;;;;4991070;28;20505;-75
2022/02/18 09:38:15;;;;;;;28.80;3.78;;;4.80;87.80;;;;;;4991545;28;20058;-73
2022/02/18 09:40:43;;;;;;;25.15;3.88;;;4.80;87.80;;;;;;4990511;28;20411;-75
2022/02/18 09:43:11;;;;;;;19.75;2.53;;;4.90;87.90;;;;;;4991939;28;20042;-71
2022/02/18 09:45:39;;;;;;;17.67;2.72;;;5.00;88.00;;;;;;4992579;28;20057;-72
2022/02/18 09:48:11;;;;;;;29.45;3.88;;;5.20;87.90;;;;;;4993719;28;20062;-72
2022/02/18 09:50:40;;;;;;;23.27;2.97;;;5.30;87.30;;;;;;4992514;28;20058;-73
2022/02/18 09:53:17;;;;;;;16.70;2.83;;;5.40;87.10;;;;;;4992048;28;20050;-72
2022/02/18 09:55:46;;;;;;;36.00;4.65;;;5.60;87.00;;;;;;4992454;28;20053;-73
2022/02/18 09:58:22;;;;;;;27.05;3.50;;;5.70;86.90;;;;;;4992160;28;20050;-73
2022/02/18 10:00:51;;;;;;;16.90;2.15;;;5.80;86.60;;;;;;4992217;28;20058;-74
2022/02/18 10:03:20;;;;;;;29.05;4.20;;;5.90;86.00;;;;;;4992031;28;20042;-74
2022/02/18 10:05:48;;;;;;;17.65;2.78;;;6.00;85.60;;;;;;4992114;28;20065;-73
2022/02/18 10:08:18;;;;;;;28.13;3.97;;;6.00;84.50;;;;;;4991888;28;20038;-74
2022/02/18 10:11:03;;;;;;;15.55;2.20;;;6.10;83.40;;;;;;4991337;28;20059;-73
2022/02/18 10:13:37;;;;;;;13.95;1.95;;;6.20;82.50;;;;;;4979374;28;20049;-72
2022/02/18 10:16:22;;;;;;;23.40;3.55;;;6.20;83.40;;;;;;4990126;28;20054;-72
2022/02/18 10:18:56;;;;;;;28.67;3.47;;;6.20;83.80;;;;;;4987025;28;20058;-72
2022/02/18 10:21:34;;;;;;;26.20;3.33;;;6.10;84.20;;;;;;4990534;28;20042;-73
2022/02/18 10:24:08;;;;;;;30.95;4.10;;;6.10;84.40;;;;;;4972956;28;20039;-73
2022/02/18 10:26:47;;;;;;;30.67;4.20;;;6.00;84.60;;;;;;4982570;28;20050;-73
2022/02/18 10:29:25;;;;;;;26.75;3.53;;;6.10;84.70;;;;;;4971219;28;20511;-73
2022/02/18 10:32:13;;;;;;;28.50;3.95;;;6.10;84.30;;;;;;4977301;28;20527;-74
2022/02/18 10:34:56;;;;;;;32.15;3.75;;;6.10;84.00;;;;;;4989206;28;20065;-74
2022/02/18 10:37:25;;;;;;;25.92;4.65;;;6.10;84.10;;;;;;4990293;28;20488;-74
2022/02/18 10:40:14;;;;;;;27.88;3.40;;;6.10;84.10;;;;;;4988644;28;20500;-73
2022/02/18 10:42:44;;;;;;;22.63;2.80;;;6.10;84.20;;;;;;4987651;28;20500;-74
2022/02/18 10:45:16;;;;;;;29.45;4.28;;;6.10;84.10;;;;;;4982624;28;20046;-73
2022/02/18 10:47:46;;;;;;;24.25;3.70;;;6.10;84.30;;;;;;4981860;28;20043;-73
2022/02/18 10:50:19;;;;;;;21.00;2.75;;;6.10;84.50;;;;;;4989123;28;20046;-73
2022/02/18 10:53:09;;;;;;;25.92;3.30;;;6.10;84.60;;;;;;4995815;28;20043;-73
2022/02/18 10:55:56;;;;;;;25.42;4.22;;;6.00;84.60;;;;;;4994240;28;20042;-72
2022/02/18 10:58:41;;;;;;;25.67;3.75;;;6.00;84.60;;;;;;4993789;28;20496;-72
2022/02/18 11:01:16;;;;;;;17.27;2.63;;;5.90;84.90;;;;;;4991747;28;20488;-72
2022/02/18 11:03:53;;;;;;;22.05;3.03;;;5.80;85.20;;;;;;4983361;28;20054;-72
2022/02/18 11:06:25;;;;;;;17.17;3.15;;;5.80;85.60;;;;;;4978094;28;20135;-71
2022/02/18 11:08:57;;;;;;;12.75;2.58;;;5.80;85.90;;;;;;4995004;28;20049;-72
2022/02/18 11:11:44;;;;;;;14.30;2.88;;;5.80;86.10;;;;;;4994897;28;20062;-72
2022/02/18 11:14:15;;;;;;;23.27;2.97;;;5.80;86.10;;;;;;4994319;28;20050;-71
2022/02/18 11:16:44;;;;;;;26.35;2.90;;;5.90;86.30;;;;;;4991695;28;20558;-70
2022/02/18 11:19:12;;;;;;;19.58;3.00;;;5.90;86.30;;;;;;5005043;28;20421;-69
2022/02/18 11:22:01;;;;;;;22.77;2.55;;;6.00;86.30;;;;;;4992781;28;20050;-71
2022/02/18 11:24:29;;;;;;;26.65;3.47;;;6.00;86.50;;;;;;4992421;28;20377;-71
2022/02/18 11:27:02;;;;;;;25.83;3.40;;;6.00;86.60;;;;;;4992491;28;20500;-71
2022/02/18 11:29:35;;;;;;;22.52;2.40;;;5.90;86.70;;;;;;4988529;28;20038;-71
2022/02/18 11:32:24;;;;;;;20.73;3.03;;;5.80;87.00;;;;;;4994172;28;20059;-72
2022/02/18 11:35:33;;;;;;;18.45;2.47;;;5.80;87.30;;;;;;4994532;28;20054;-72
2022/02/18 11:38:19;;;;;;;19.88;2.17;;;5.70;87.60;;;;;;4973539;28;20058;-72
2022/02/18 11:41:22;;;;;;;20.52;2.58;;;5.70;87.90;;;;;;4994667;28;20046;-72
2022/02/18 11:43:50;;;;;;;11.02;1.58;;;5.70;88.00;;;;;;4983054;28;20038;-71
2022/02/18 11:46:26;;;;;;;10.65;2.03;;;5.80;88.10;;;;;;5001174;28;20503;-72
2022/02/18 11:49:01;;;;;;;13.68;2.13;;;5.90;88.20;;;;;;4992799;28;20069;-72
2022/02/18 11:51:44;;;;;;;9.35;1.98;;;6.00;88.20;;;;;;4976878;28;20058;-72
2022/02/18 11:54:26;;;;;;;16.00;1.45;;;6.10;88.40;;;;;;4993680;28;20050;-72
2022/02/18 11:57:12;;;;;;;15.25;2.13;;;6.10;88.40;;;;;;4993951;28;20050;-71
2022/02/18 11:59:55;;;;;;;16.75;2.33;;;6.10;88.40;;;;;;5001360;28;20048;-71
2022/02/18 12:02:42;;;;;;;13.02;2.22;;;6.10;88.70;;;;;;5000372;28;20054;-71
2022/02/18 12:05:12;;;;;;;12.95;1.40;;;6.10;88.90;;;;;;5005568;28;20576;-71
2022/02/18 12:07:50;;;;;;;6.88;1.05;;;6.10;89.00;;;;;;5002427;28;20057;-70
2022/02/18 12:10:20;;;;;;;7.82;1.27;;;6.20;89.30;;;;;;5001284;28;20057;-71
2022/02/18 12:12:48;;;;;;;9.43;1.15;;;6.20;89.30;;;;;;5003050;28;20050;-70
2022/02/18 12:15:30;;;;;;;6.72;1.30;;;6.20;88.90;;;;;;4988737;28;20057;-70
2022/02/18 12:18:07;;;;;;;5.22;1.00;;;6.10;88.80;;;;;;4981727;28;20403;-71
2022/02/18 12:20:38;;;;;;;6.57;0.63;;;6.10;88.80;;;;;;4974551;28;20049;-72
2022/02/18 12:23:26;;;;;;;6.20;0.90;;;6.30;88.10;;;;;;4982706;28;20415;-72
2022/02/18 12:26:27;;;;;;;3.10;0.40;;;6.40;86.90;;;;;;4984758;28;20055;-72
2022/02/18 12:29:21;;;;;;;4.40;0.60;;;6.50;85.50;;;;;;4980232;28;20400;-73
2022/02/18 12:31:50;;;;;;;2.63;0.70;;;6.50;85.10;;;;;;4990362;28;20043;-74
2022/02/18 12:34:33;;;;;;;3.90;0.70;;;6.40;85.10;;;;;;4988392;28;20416;-73
2022/02/18 12:37:01;;;;;;;3.72;0.77;;;6.20;84.90;;;;;;4979476;28;20054;-73
2022/02/18 12:39:43;;;;;;;4.50;0.73;;;6.00;85.30;;;;;;4973154;28;20063;-74
2022/02/18 12:42:19;;;;;;;4.60;0.68;;;5.80;85.60;;;;;;4964178;28;20428;-73
2022/02/18 12:44:51;;;;;;;7.25;1.20;;;5.90;86.00;;;;;;4985695;28;20042;-75
2022/02/18 12:47:21;;;;;;;9.48;1.08;;;6.00;86.30;;;;;;4989802;28;20051;-76
2022/02/18 12:49:52;;;;;;;5.05;0.98;;;6.30;86.10;;;;;;4987317;28;20041;-76
2022/02/18 12:52:24;;;;;;;10.25;1.27;;;6.50;85.50;;;;;;4988402;28;20050;-76
2022/02/18 12:54:54;;;;;;;8.18;1.42;;;6.50;85.00;;;;;;4991284;28;20061;-73
2022/02/18 12:57:25;;;;;;;9.80;1.52;;;6.30;85.10;;;;;;4990293;28;20054;-75
2022/02/18 12:59:56;;;;;;;3.35;0.65;;;6.30;85.00;;;;;;4978276;28;20053;-72
2022/02/18 13:02:47;;;;;;;5.43;0.70;;;6.20;85.10;;;;;;4982784;28;20053;-73
2022/02/18 13:05:24;;;;;;;4.80;0.52;;;6.20;84.00;;;;;;4977254;28;20100;-73
2022/02/18 13:07:58;;;;;;;5.35;0.73;;;5.90;84.30;;;;;;4988179;28;20042;-70
2022/02/18 13:10:34;;;;;;;8.45;1.00;;;5.80;84.40;;;;;;4984416;28;20043;-72